Time;durP1;ratioP1;P1;durP2;ratioP2;P2;SDS_P1;SDS_P2;PMS_P1;PMS_P2;Temp;Humidity;BMP_temperature;BMP_pressure;BME280_temperature;BME280_humidity;BME280_pressure;Samples;Min_cycle;Max_cycle;Signal;HPM_P1;HPM_P2
2023/12/05 00:00:57;;;;;;;14.00;9.00;;;;;;;0.62;100.00;101943.43;106068;1250;72605;-78
2023/12/05 00:03:24;;;;;;;13.90;9.00;;;;;;;0.61;100.00;101942.58;106283;1253;61204;-77
2023/12/05 00:05:51;;;;;;;13.80;8.60;;;;;;;0.63;100.00;101941.38;106035;1250;60402;-77
2023/12/05 00:08:18;;;;;;;15.90;8.90;;;;;;;0.64;100.00;101937.25;106131;1250;74186;-77
2023/12/05 00:10:45;;;;;;;15.30;10.30;;;;;;;0.66;100.00;101936.39;106103;1253;63780;-76
2023/12/05 00:13:12;;;;;;;15.90;8.80;;;;;;;0.69;100.00;101939.16;106039;1250;72571;-78
2023/12/05 00:15:41;;;;;;;14.80;9.90;;;;;;;0.72;100.00;101948.28;105807;1256;61194;-77
2023/12/05 00:18:09;;;;;;;17.60;9.60;;;;;;;0.72;100.00;101950.34;105971;1253;60392;-78
2023/12/05 00:20:36;;;;;;;19.10;9.70;;;;;;;0.74;100.00;101952.41;105995;1250;73701;-78
2023/12/05 00:23:03;;;;;;;16.60;9.70;;;;;;;0.77;100.00;101953.80;105999;1253;63880;-78
2023/12/05 00:25:29;;;;;;;18.30;10.60;;;;;;;0.77;100.00;101954.33;105953;1250;72667;-79
2023/12/05 00:27:56;;;;;;;13.10;8.20;;;;;;;0.78;100.00;101956.04;105953;1249;61262;-76
2023/12/05 00:30:24;;;;;;;14.20;9.60;;;;;;;0.78;100.00;101953.46;106026;1249;60534;-77
2023/12/05 00:32:51;;;;;;;13.40;9.10;;;;;;;0.78;100.00;101953.98;106106;1250;72839;-77
2023/12/05 00:35:19;;;;;;;13.10;8.60;;;;;;;0.77;100.00;101953.28;106049;1253;63673;-77
2023/12/05 00:37:46;;;;;;;15.40;9.50;;;;;;;0.77;100.00;101955.17;105965;1251;72673;-76
2023/12/05 00:40:13;;;;;;;13.50;8.20;;;;;;;0.76;100.00;101952.25;105975;1253;61171;-75
2023/12/05 00:42:41;;;;;;;14.90;9.80;;;;;;;0.76;100.00;101958.27;105979;1250;60428;-77
2023/12/05 00:45:11;;;;;;;17.40;9.40;;;;;;;0.76;100.00;101958.79;105987;1250;73715;-77
2023/12/05 00:47:42;;;;;;;12.60;8.60;;;;;;;0.76;100.00;101961.55;105963;1249;62406;-77
2023/12/05 00:50:09;;;;;;;16.40;8.30;;;;;;;0.75;100.00;101961.03;106101;1253;72689;-78
2023/12/05 00:52:36;;;;;;;16.10;8.90;;;;;;;0.74;100.00;101964.30;106017;1253;60378;-77
2023/12/05 00:55:04;;;;;;;13.90;8.60;;;;;;;0.74;100.00;101961.20;106122;1251;60520;-77
2023/12/05 00:57:31;;;;;;;18.60;9.80;;;;;;;0.74;100.00;101966.87;106341;1253;72513;-76
2023/12/05 00:59:58;;;;;;;12.70;8.50;;;;;;;0.72;100.00;101964.63;106236;1250;63642;-77
2023/12/05 01:02:25;;;;;;;15.10;8.80;;;;;;;0.69;100.00;101959.81;106079;1251;72612;-75
2023/12/05 01:04:53;;;;;;;11.90;8.40;;;;;;;0.67;100.00;101955.52;106162;1253;60946;-76
2023/12/05 01:07:20;;;;;;;13.40;8.20;;;;;;;0.67;100.00;101955.49;106184;1250;60460;-77
2023/12/05 01:09:48;;;;;;;14.60;8.50;;;;;;;0.68;100.00;101954.65;106099;1251;73857;-75
2023/12/05 01:12:15;;;;;;;11.40;8.60;;;;;;;0.71;100.00;101955.17;106160;1253;65296;-76
2023/12/05 01:14:42;;;;;;;13.80;9.70;;;;;;;0.71;100.00;101955.86;107392;1253;72653;-76
2023/12/05 01:17:09;;;;;;;11.60;9.00;;;;;;;0.71;100.00;101953.09;107748;1253;61161;-75
2023/12/05 01:19:38;;;;;;;15.00;9.20;;;;;;;0.68;100.00;101957.05;107178;1250;60540;-75
2023/12/05 01:22:05;;;;;;;15.10;9.70;;;;;;;0.65;100.00;101959.62;106452;1253;74274;-75
2023/12/05 01:24:33;;;;;;;15.80;10.50;;;;;;;0.62;100.00;101962.73;106102;1253;63902;-79
2023/12/05 01:27:00;;;;;;;16.50;10.70;;;;;;;0.59;100.00;101965.96;106055;1253;72636;-77
2023/12/05 01:29:26;;;;;;;15.50;9.40;;;;;;;0.56;100.00;101968.20;106060;1253;60532;-77
2023/12/05 01:31:54;;;;;;;18.70;11.10;;;;;;;0.53;100.00;101969.39;106119;1251;60435;-77
2023/12/05 01:34:21;;;;;;;17.80;11.50;;;;;;;0.47;100.00;101965.77;106065;1250;73869;-77
2023/12/05 01:36:48;;;;;;;16.80;10.90;;;;;;;0.40;100.00;101969.70;106000;1253;63672;-77
2023/12/05 01:39:16;;;;;;;17.60;11.90;;;;;;;0.36;100.00;101971.74;105996;1250;72705;-76
2023/12/05 01:41:42;;;;;;;18.30;11.00;;;;;;;0.30;100.00;101974.13;106028;1253;60537;-76
2023/12/05 01:44:09;;;;;;;19.60;12.40;;;;;;;0.25;100.00;101975.30;106162;1250;60639;-77
2023/12/05 01:46:37;;;;;;;20.20;12.00;;;;;;;0.17;100.00;101974.92;105822;1251;73706;-77
2023/12/05 01:49:04;;;;;;;17.10;11.70;;;;;;;0.10;100.00;101974.71;106073;1249;62524;-76
2023/12/05 01:51:41;;;;;;;16.70;11.60;;;;;;;0.04;100.00;101974.86;105977;1251;72542;-78
2023/12/05 01:54:08;;;;;;;20.80;11.40;;;;;;;-0.01;100.00;101972.08;106042;1250;60497;-78
2023/12/05 01:56:35;;;;;;;17.90;12.90;;;;;;;-0.06;100.00;101961.40;105882;1251;60483;-76
2023/12/05 01:59:02;;;;;;;17.10;12.50;;;;;;;-0.10;100.00;101961.38;106035;1249;73862;-78
2023/12/05 02:01:29;;;;;;;24.30;12.70;;;;;;;-0.14;100.00;101957.39;106115;1253;63833;-79
2023/12/05 02:03:57;;;;;;;21.30;13.50;;;;;;;-0.20;100.00;101957.54;106004;1250;72614;-78
2023/12/05 02:06:26;;;;;;;18.80;12.50;;;;;;;-0.26;100.00;101960.08;105942;1250;60540;-76
2023/12/05 02:08:53;;;;;;;20.90;14.00;;;;;;;-0.32;100.00;101960.55;105999;1253;60431;-78
2023/12/05 02:11:20;;;;;;;20.30;14.30;;;;;;;-0.37;100.00;101958.62;105941;1251;73792;-77
2023/12/05 02:13:48;;;;;;;22.40;13.10;;;;;;;-0.45;100.00;101960.47;105903;1253;63873;-79
2023/12/05 02:16:37;;;;;;;20.00;13.00;;;;;;;-0.50;100.00;101960.77;105965;1251;71791;-79
2023/12/05 02:19:31;;;;;;;21.30;13.70;;;;;;;-0.56;100.00;101966.23;106032;1253;60996;-79
2023/12/05 02:22:00;;;;;;;19.60;11.70;;;;;;;-0.62;100.00;101977.34;106016;1251;60534;-79
2023/12/05 02:24:53;;;;;;;19.50;11.90;;;;;;;-0.67;100.00;101974.55;105761;1249;73890;-76
2023/12/05 02:27:50;;;;;;;20.30;12.90;;;;;;;-0.72;100.00;101976.23;106073;1253;63625;-77
2023/12/05 02:30:17;;;;;;;22.60;13.30;;;;;;;-0.78;100.00;101975.31;105273;1257;72738;-78
2023/12/05 02:32:44;;;;;;;22.30;13.70;;;;;;;-0.81;100.00;101980.61;105489;1260;61206;-77
2023/12/05 02:35:11;;;;;;;20.00;12.40;;;;;;;-0.84;100.00;101985.03;105475;1257;60543;-77
2023/12/05 02:37:47;;;;;;;18.50;11.80;;;;;;;-0.87;100.00;101991.38;105252;1258;73973;-77
2023/12/05 02:40:16;;;;;;;24.90;14.90;;;;;;;-0.90;100.00;101996.31;105267;1260;63947;-76
2023/12/05 02:42:45;;;;;;;21.60;15.40;;;;;;;-0.92;100.00;101998.52;105209;1257;72785;-77
2023/12/05 02:45:17;;;;;;;27.70;15.80;;;;;;;-0.93;100.00;101997.14;105282;1260;61249;-77
2023/12/05 02:50:43;;;;;;;22.60;16.70;;;;;;;-0.96;100.00;102006.90;102713;1295;615506;-76
2023/12/05 02:53:10;;;;;;;21.90;14.80;;;;;;;-1.02;100.00;102005.48;104898;1266;60941;-77
2023/12/05 02:55:38;;;;;;;24.20;15.00;;;;;;;-1.04;100.00;102011.45;105161;1264;60086;-78
2023/12/05 02:58:05;;;;;;;25.60;16.70;;;;;;;-1.07;100.00;102013.15;105010;1264;72102;-77
2023/12/05 03:00:32;;;;;;;27.20;15.30;;;;;;;-1.10;100.00;102018.08;105206;1270;63807;-78
2023/12/05 03:02:59;;;;;;;24.00;15.40;;;;;;;-1.13;100.00;102021.66;104907;1269;213096;-77
2023/12/05 03:05:26;;;;;;;28.90;16.90;;;;;;;-1.16;100.00;102024.19;105975;1254;60897;-77
2023/12/05 03:07:53;;;;;;;26.40;15.40;;;;;;;-1.18;100.00;102024.69;106007;1251;59992;-77
2023/12/05 03:10:21;;;;;;;24.10;16.20;;;;;;;-1.21;100.00;102030.68;105986;1249;72198;-75
2023/12/05 03:12:48;;;;;;;26.40;16.80;;;;;;;-1.23;100.00;102038.70;105994;1254;63959;-77
2023/12/05 03:15:15;;;;;;;28.80;17.90;;;;;;;-1.27;100.00;102039.70;105955;1251;71275;-75
2023/12/05 03:17:43;;;;;;;44.70;26.50;;;;;;;-1.30;100.00;102035.36;105863;1254;61864;-77
2023/12/05 03:20:10;;;;;;;27.90;17.70;;;;;;;-1.33;100.00;102037.39;106025;1256;60175;-79
2023/12/05 03:22:37;;;;;;;48.00;26.70;;;;;;;-1.37;100.00;102045.92;105884;1256;72906;-78
2023/12/05 03:25:05;;;;;;;73.90;40.80;;;;;;;-1.40;100.00;102048.79;105959;1256;63860;-77
2023/12/05 03:27:32;;;;;;;55.30;32.50;;;;;;;-1.43;100.00;102048.75;106037;1256;72741;-77
2023/12/05 03:30:00;;;;;;;26.00;16.10;;;;;;;-1.46;100.00;102048.72;105838;1251;62677;-77
2023/12/05 03:32:27;;;;;;;25.60;17.10;;;;;;;-1.49;100.00;102051.42;105735;1251;60184;-78
2023/12/05 03:34:54;;;;;;;29.40;16.00;;;;;;;-1.51;100.00;102050.55;105975;1251;73009;-79
2023/12/05 03:37:22;;;;;;;27.60;15.30;;;;;;;-1.54;100.00;102045.52;105878;1256;62755;-77
2023/12/05 03:39:49;;;;;;;23.80;15.00;;;;;;;-1.56;100.00;102044.82;106000;1255;71675;-76
2023/12/05 03:42:16;;;;;;;22.20;14.90;;;;;;;-1.57;100.00;102046.86;105912;1256;61745;-78
2023/12/05 03:44:44;;;;;;;23.40;15.80;;;;;;;-1.59;100.00;102054.72;106037;1251;60141;-74
2023/12/05 03:47:18;;;;;;;25.00;15.70;;;;;;;-1.61;100.00;102061.73;106071;1251;72998;-77
2023/12/05 03:49:46;;;;;;;26.40;15.70;;;;;;;-1.63;100.00;102058.45;105913;1256;63901;-76
2023/12/05 03:52:13;;;;;;;24.00;16.40;;;;;;;-1.64;100.00;102060.15;105982;1251;71545;-77
2023/12/05 03:54:40;;;;;;;21.80;14.50;;;;;;;-1.66;100.00;102051.39;105915;1256;62136;-77
2023/12/05 03:57:07;;;;;;;24.50;14.50;;;;;;;-1.68;100.00;102049.81;105979;1251;60358;-79
2023/12/05 03:59:34;;;;;;;27.40;15.40;;;;;;;-1.70;100.00;102051.15;105882;1251;73033;-77
2023/12/05 04:02:04;;;;;;;23.60;14.70;;;;;;;-1.71;100.00;102046.34;106050;1256;63652;-76
2023/12/05 04:04:31;;;;;;;28.30;15.70;;;;;;;-1.72;100.00;102044.61;106186;1251;72648;-76
2023/12/05 04:06:59;;;;;;;24.70;15.50;;;;;;;-1.74;100.00;102044.92;106423;1256;61778;-75
2023/12/05 04:09:26;;;;;;;21.40;14.30;;;;;;;-1.75;100.00;102045.42;107320;1251;60191;-75
2023/12/05 04:11:53;;;;;;;22.40;14.30;;;;;;;-1.76;100.00;102045.23;108398;1251;71954;-75
2023/12/05 04:14:21;;;;;;;23.90;14.10;;;;;;;-1.76;100.00;102041.98;106658;1251;62590;-76
2023/12/05 04:16:48;;;;;;;29.30;16.50;;;;;;;-1.76;100.00;102043.52;106014;1251;72709;-78
2023/12/05 04:19:16;;;;;;;29.10;17.50;;;;;;;-1.77;100.00;102041.29;106014;1251;61887;-77
2023/12/05 04:21:43;;;;;;;31.20;19.60;;;;;;;-1.78;100.00;102039.04;106014;1251;60265;-77
2023/12/05 04:24:11;;;;;;;32.40;20.30;;;;;;;-1.81;100.00;102042.60;105969;1254;71952;-77
2023/12/05 04:26:39;;;;;;;40.10;24.60;;;;;;;-1.82;100.00;102039.14;105857;1256;63825;-76
2023/12/05 04:29:06;;;;;;;40.30;24.80;;;;;;;-1.84;100.00;102036.22;106017;1255;72298;-77
2023/12/05 04:31:33;;;;;;;44.20;23.60;;;;;;;-1.85;100.00;102034.30;106141;1259;62477;-75
2023/12/05 04:34:00;;;;;;;46.90;28.20;;;;;;;-1.87;100.00;102042.69;106324;1251;60194;-76
2023/12/05 04:36:28;;;;;;;51.40;24.60;;;;;;;-1.88;100.00;102047.64;106127;1256;73096;-76
2023/12/05 04:38:55;;;;;;;45.20;25.50;;;;;;;-1.90;100.00;102048.46;106315;1255;63646;-75
2023/12/05 04:41:22;;;;;;;41.20;25.60;;;;;;;-1.92;100.00;102052.90;106049;1251;72642;-77
2023/12/05 04:43:50;;;;;;;33.10;22.30;;;;;;;-1.92;100.00;102054.77;106409;1252;62057;-76
2023/12/05 04:46:17;;;;;;;42.20;21.90;;;;;;;-1.94;100.00;102054.23;105905;1252;60312;-77
2023/12/05 04:48:44;;;;;;;43.30;23.60;;;;;;;-1.95;100.00;102058.69;105997;1256;71735;-78
2023/12/05 04:51:11;;;;;;;42.40;23.90;;;;;;;-1.95;100.00;102062.96;105986;1256;63728;-76
2023/12/05 04:53:40;;;;;;;46.30;23.60;;;;;;;-1.96;100.00;102064.83;106149;1251;72615;-78
2023/12/05 04:56:07;;;;;;;49.70;22.90;;;;;;;-1.97;100.00;102066.88;105961;1255;62038;-79
2023/12/05 04:58:37;;;;;;;36.40;21.20;;;;;;;-1.99;100.00;102071.13;105945;1251;61177;-78
2023/12/05 05:01:04;;;;;;;34.90;20.40;;;;;;;-2.02;100.00;102066.97;106192;1251;73108;-77
2023/12/05 05:03:32;;;;;;;52.20;28.00;;;;;;;-2.04;100.00;102066.95;106022;1253;63906;-77
2023/12/05 05:05:59;;;;;;;52.70;29.80;;;;;;;-2.05;100.00;102070.00;105780;1251;72659;-76
2023/12/05 05:08:27;;;;;;;46.10;26.40;;;;;;;-2.07;100.00;102071.68;105880;1257;61891;-78
2023/12/05 05:10:54;;;;;;;54.30;31.30;;;;;;;-2.08;100.00;102076.30;106023;1254;60291;-78
2023/12/05 05:13:22;;;;;;;57.50;31.00;;;;;;;-2.10;100.00;102076.78;106815;1251;71633;-76
2023/12/05 05:15:49;;;;;;;58.60;31.10;;;;;;;-2.12;100.00;102070.23;106339;1256;62580;-77
2023/12/05 05:18:16;;;;;;;75.70;35.00;;;;;;;-2.14;100.00;102072.44;106140;1251;72738;-77
2023/12/05 05:20:43;;;;;;;104.00;45.40;;;;;;;-2.16;100.00;102072.05;105955;1255;62060;-77
2023/12/05 05:23:11;;;;;;;82.00;41.60;;;;;;;-2.16;100.00;102079.59;106011;1251;60293;-77
2023/12/05 05:25:38;;;;;;;69.20;34.30;;;;;;;-2.17;100.00;102086.27;106181;1251;73071;-77
2023/12/05 05:28:09;;;;;;;55.00;31.60;;;;;;;-2.17;100.00;102096.55;106106;1253;63134;-79
2023/12/05 05:30:36;;;;;;;54.90;29.60;;;;;;;-2.18;100.00;102101.67;106205;1256;71301;-77
2023/12/05 05:33:10;;;;;;;41.80;24.10;;;;;;;-2.18;100.00;102108.86;106221;1257;60802;-75
2023/12/05 05:35:37;;;;;;;33.80;20.40;;;;;;;-2.17;100.00;102108.37;106003;1256;59548;-76
2023/12/05 05:38:04;;;;;;;32.10;18.50;;;;;;;-2.18;100.00;102100.98;105896;1256;73056;-78
2023/12/05 05:40:32;;;;;;;36.30;20.70;;;;;;;-2.18;100.00;102102.00;105950;1256;63981;-76
2023/12/05 05:42:59;;;;;;;41.50;24.40;;;;;;;-2.19;100.00;102094.63;105946;1254;72731;-77
2023/12/05 05:45:27;;;;;;;37.90;21.40;;;;;;;-2.19;100.00;102092.57;105951;1254;60441;-75
2023/12/05 05:47:54;;;;;;;43.60;22.90;;;;;;;-2.20;100.00;102094.95;105766;1253;60316;-77
2023/12/05 05:50:21;;;;;;;44.10;25.90;;;;;;;-2.21;100.00;102094.59;105844;1253;73076;-77
2023/12/05 05:52:48;;;;;;;34.60;21.40;;;;;;;-2.21;100.00;102100.76;105889;1256;63777;-77
2023/12/05 05:55:15;;;;;;;35.60;22.70;;;;;;;-2.22;100.00;102099.38;105806;1254;72700;-76
2023/12/05 05:57:42;;;;;;;33.50;21.30;;;;;;;-2.23;100.00;102102.27;105848;1253;60777;-77
2023/12/05 06:00:10;;;;;;;31.80;18.70;;;;;;;-2.22;100.00;102104.34;105782;1254;60158;-76
2023/12/05 06:02:38;;;;;;;29.50;16.70;;;;;;;-2.21;100.00;102100.08;105810;1254;71627;-79
2023/12/05 06:05:05;;;;;;;28.40;17.90;;;;;;;-2.20;100.00;102098.39;105697;1254;62378;-77
2023/12/05 06:07:34;;;;;;;30.90;17.30;;;;;;;-2.20;100.00;102100.42;105788;1257;72662;-77
2023/12/05 06:10:04;;;;;;;30.60;19.40;;;;;;;-2.19;100.00;102101.30;105868;1255;60493;-78
2023/12/05 06:12:35;;;;;;;36.00;19.90;;;;;;;-2.17;100.00;102106.48;105680;1256;60446;-78
2023/12/05 06:15:02;;;;;;;29.20;16.20;;;;;;;-2.13;100.00;102113.23;105879;1254;72963;-77
2023/12/05 06:17:31;;;;;;;29.90;16.90;;;;;;;-2.10;100.00;102117.55;105936;1254;63610;-78
2023/12/05 06:20:00;;;;;;;30.20;16.70;;;;;;;-2.06;100.00;102116.42;105774;1256;72459;-77
2023/12/05 06:22:27;;;;;;;27.30;16.90;;;;;;;-2.02;100.00;102111.52;105760;1256;62042;-77
2023/12/05 06:24:54;;;;;;;23.40;14.80;;;;;;;-1.99;100.00;102107.27;105786;1256;59561;-79
2023/12/05 06:27:21;;;;;;;33.90;17.90;;;;;;;-1.97;100.00;102111.27;105686;1256;74507;-78
2023/12/05 06:29:49;;;;;;;30.20;17.60;;;;;;;-1.95;100.00;102116.61;105905;1256;63896;-77
2023/12/05 06:32:16;;;;;;;29.10;17.00;;;;;;;-1.91;100.00;102109.64;105784;1256;72738;-78
2023/12/05 06:34:43;;;;;;;24.50;16.00;;;;;;;-1.87;100.00;102106.27;105779;1256;61858;-77
2023/12/05 06:37:10;;;;;;;29.20;16.30;;;;;;;-1.85;100.00;102106.82;105828;1253;60310;-76
2023/12/05 06:39:37;;;;;;;27.70;16.20;;;;;;;-1.82;100.00;102105.48;105770;1254;73142;-78
2023/12/05 06:42:05;;;;;;;31.90;17.40;;;;;;;-1.78;100.00;102104.35;105870;1256;63681;-75
2023/12/05 06:44:32;;;;;;;37.80;21.50;;;;;;;-1.72;100.00;102107.19;105684;1253;72567;-79
2023/12/05 06:47:00;;;;;;;31.20;17.60;;;;;;;-1.65;100.00;102108.15;105853;1253;61934;-77
2023/12/05 06:49:27;;;;;;;29.50;17.20;;;;;;;-1.55;100.00;102114.80;106008;1256;59619;-78
2023/12/05 06:52:00;;;;;;;27.10;16.50;;;;;;;-1.45;100.00;102111.33;105819;1257;72907;-77
2023/12/05 06:54:27;;;;;;;26.30;15.70;;;;;;;-1.38;100.00;102110.56;105778;1256;63872;-76
2023/12/05 06:56:54;;;;;;;28.00;17.90;;;;;;;-1.35;100.00;102105.98;105835;1254;72502;-76
2023/12/05 06:59:21;;;;;;;25.70;15.20;;;;;;;-1.32;100.00;102106.71;105842;1256;62027;-77
2023/12/05 07:01:49;;;;;;;25.70;16.40;;;;;;;-1.30;100.00;102103.65;106457;1256;60443;-77
2023/12/05 07:04:18;;;;;;;25.80;15.70;;;;;;;-1.27;100.00;102104.87;106893;1253;73859;-78
2023/12/05 07:06:45;;;;;;;30.80;15.90;;;;;;;-1.22;100.00;102104.94;106141;1252;62494;-78
2023/12/05 07:09:13;;;;;;;26.10;15.20;;;;;;;-1.18;100.00;102106.55;106203;1253;73805;-77
2023/12/05 07:11:41;;;;;;;31.40;16.90;;;;;;;-1.13;100.00;102112.44;106684;1254;60408;-78
2023/12/05 07:14:08;;;;;;;25.50;15.90;;;;;;;-1.07;100.00;102109.08;105781;1254;60572;-78
2023/12/05 07:16:36;;;;;;;34.10;17.50;;;;;;;-1.01;100.00;102102.98;105826;1253;73739;-79
2023/12/05 07:19:03;;;;;;;24.00;15.50;;;;;;;-0.94;100.00;102101.67;105972;1256;63895;-77
2023/12/05 07:21:30;;;;;;;26.90;15.00;;;;;;;-0.89;100.00;102098.30;105841;1256;72648;-79
2023/12/05 07:23:58;;;;;;;23.70;15.40;;;;;;;-0.84;100.00;102094.75;105770;1256;60990;-77
2023/12/05 07:26:28;;;;;;;26.30;15.70;;;;;;;-0.79;100.00;102094.45;105834;1253;60844;-78
2023/12/05 07:28:55;;;;;;;23.60;14.60;;;;;;;-0.74;100.00;102102.74;109649;1252;75037;-77
2023/12/05 07:31:22;;;;;;;21.60;13.90;;;;;;;-0.70;100.00;102103.48;109463;1253;63772;-77
2023/12/05 07:33:49;;;;;;;22.30;13.10;;;;;;;-0.66;100.00;102103.87;109604;1252;71466;-77
2023/12/05 07:36:16;;;;;;;21.10;13.70;;;;;;;-0.60;100.00;102105.64;109608;1252;61146;-79
2023/12/05 07:38:43;;;;;;;23.60;15.60;;;;;;;-0.55;100.00;102110.34;109631;1253;60109;-79
2023/12/05 07:41:20;;;;;;;21.50;14.00;;;;;;;-0.49;100.00;102113.48;109605;1253;73636;-77
2023/12/05 07:43:49;;;;;;;21.70;13.50;;;;;;;-0.43;100.00;102121.10;109501;1254;62536;-77
2023/12/05 07:46:16;;;;;;;20.10;13.20;;;;;;;-0.37;100.00;102127.34;109574;1252;71483;-78
2023/12/05 07:48:44;;;;;;;18.80;12.50;;;;;;;-0.32;100.00;102133.75;109590;1253;60977;-77
2023/12/05 07:51:15;;;;;;;20.00;13.30;;;;;;;-0.26;100.00;102134.84;109633;1252;59220;-78
2023/12/05 07:53:44;;;;;;;19.40;13.50;;;;;;;-0.19;100.00;102138.69;109638;1252;73849;-78
2023/12/05 07:56:11;;;;;;;16.70;10.90;;;;;;;-0.15;100.00;102139.77;109508;1252;62957;-77
2023/12/05 07:58:38;;;;;;;16.80;10.20;;;;;;;-0.10;100.00;102135.48;109573;1253;74118;-76
2023/12/05 08:01:06;;;;;;;17.30;10.40;;;;;;;-0.07;100.00;102132.77;109561;1252;59687;-77
2023/12/05 08:03:34;;;;;;;15.50;10.50;;;;;;;-0.04;100.00;102133.65;109602;1253;58971;-76
2023/12/05 08:06:02;;;;;;;24.70;14.60;;;;;;;0.00;100.00;102128.52;109599;1252;73689;-77
2023/12/05 08:08:34;;;;;;;19.20;9.90;;;;;;;0.04;100.00;102124.09;109675;1253;63993;-78
2023/12/05 08:11:01;;;;;;;14.40;10.60;;;;;;;0.09;100.00;102115.54;109604;1252;71088;-76
2023/12/05 08:13:29;;;;;;;13.90;9.50;;;;;;;0.13;100.00;102109.89;109634;1252;59997;-78
2023/12/05 08:15:57;;;;;;;17.50;10.40;;;;;;;0.16;100.00;102107.33;109706;1252;58293;-79
2023/12/05 08:18:24;;;;;;;16.70;10.00;;;;;;;0.19;100.00;102096.69;109638;1252;73966;-75
2023/12/05 08:20:51;;;;;;;19.50;12.00;;;;;;;0.25;100.00;102096.39;109636;1253;62722;-77
2023/12/05 08:23:20;;;;;;;17.70;11.00;;;;;;;0.31;100.00;102091.77;109596;1254;72508;-77
2023/12/05 08:25:47;;;;;;;18.80;11.70;;;;;;;0.37;100.00;102088.89;109583;1253;59881;-77
2023/12/05 08:28:14;;;;;;;13.80;9.90;;;;;;;0.42;100.00;102092.70;109656;1253;60106;-77
2023/12/05 08:30:41;;;;;;;15.90;9.60;;;;;;;0.49;100.00;102095.84;109580;1252;72676;-77
2023/12/05 08:33:08;;;;;;;12.00;9.00;;;;;;;0.54;100.00;102096.73;109619;1253;63525;-77
2023/12/05 08:35:36;;;;;;;8.10;6.00;;;;;;;0.58;100.00;102089.86;109486;1254;71165;-77
2023/12/05 08:38:03;;;;;;;9.70;7.80;;;;;;;0.63;100.00;102081.80;109588;1253;59580;-78
2023/12/05 08:40:30;;;;;;;11.60;7.80;;;;;;;0.67;100.00;102078.20;109614;1253;59591;-78
2023/12/05 08:42:57;;;;;;;10.60;8.30;;;;;;;0.72;100.00;102072.88;109579;1254;73709;-76
2023/12/05 08:45:25;;;;;;;9.10;7.50;;;;;;;0.76;100.00;102077.05;109654;1252;63950;-77
2023/12/05 08:47:53;;;;;;;13.00;9.00;;;;;;;0.82;100.00;102069.66;109586;1254;71891;-79
2023/12/05 08:50:21;;;;;;;14.00;8.90;;;;;;;0.90;100.00;102073.14;109644;1252;59817;-76
2023/12/05 08:52:48;;;;;;;9.80;6.40;;;;;;;0.98;100.00;102073.51;109626;1253;60033;-76
2023/12/05 08:55:15;;;;;;;10.10;6.50;;;;;;;1.03;100.00;102065.59;109667;1253;71592;-76
2023/12/05 08:57:42;;;;;;;10.40;7.90;;;;;;;1.08;100.00;102063.03;109663;1253;63059;-75
2023/12/05 09:00:10;;;;;;;12.10;7.10;;;;;;;1.15;100.00;102067.01;109620;1254;73188;-76
2023/12/05 09:02:37;;;;;;;10.90;6.70;;;;;;;1.22;100.00;102062.38;109632;1253;59559;-77
2023/12/05 09:05:05;;;;;;;9.40;7.00;;;;;;;1.28;100.00;102059.10;109672;1252;60116;-75
2023/12/05 09:07:33;;;;;;;8.60;6.30;;;;;;;1.32;100.00;102058.95;109582;1252;73875;-75
2023/12/05 09:10:01;;;;;;;11.00;7.20;;;;;;;1.36;100.00;102056.20;109628;1252;62521;-77
2023/12/05 09:12:29;;;;;;;9.80;7.20;;;;;;;1.36;100.00;102056.04;109625;1254;70925;-76
2023/12/05 09:14:55;;;;;;;12.20;7.10;;;;;;;1.35;100.00;102049.30;109511;1252;58138;-79
2023/12/05 09:17:22;;;;;;;12.80;6.90;;;;;;;1.36;100.00;102043.44;109493;1252;60138;-78
2023/12/05 09:19:52;;;;;;;13.50;8.40;;;;;;;1.38;100.00;102042.92;109642;1253;73766;-76
2023/12/05 09:22:20;;;;;;;11.10;8.30;;;;;;;1.39;100.00;102044.30;109674;1253;62586;-76
2023/12/05 09:24:48;;;;;;;12.10;8.00;;;;;;;1.40;100.00;102047.05;109614;1253;71546;-76
2023/12/05 09:27:15;;;;;;;11.40;8.30;;;;;;;1.43;100.00;102053.27;109587;1252;58228;-77
2023/12/05 09:29:42;;;;;;;13.40;8.90;;;;;;;1.46;100.00;102060.34;109518;1254;60313;-76
2023/12/05 09:32:17;;;;;;;13.20;8.20;;;;;;;1.49;100.00;102065.00;109497;1254;71673;-77
2023/12/05 09:34:45;;;;;;;11.40;7.30;;;;;;;1.53;100.00;102062.59;109328;1252;63238;-76
2023/12/05 09:37:12;;;;;;;9.90;7.80;;;;;;;1.59;100.00;102062.59;109499;1254;71397;-77
2023/12/05 09:39:41;;;;;;;10.80;6.70;;;;;;;1.65;100.00;102067.59;109605;1252;60738;-78
2023/12/05 09:42:10;;;;;;;11.40;7.70;;;;;;;1.73;100.00;102063.11;109616;1253;59375;-77
2023/12/05 09:44:38;;;;;;;7.50;5.80;;;;;;;1.81;100.00;102058.63;109477;1253;72720;-78
2023/12/05 09:47:05;;;;;;;9.40;6.90;;;;;;;1.90;100.00;102062.58;109625;1252;62642;-78
2023/12/05 09:49:33;;;;;;;9.70;6.90;;;;;;;1.97;99.97;102062.94;109644;1253;71775;-79
2023/12/05 09:52:00;;;;;;;10.20;6.80;;;;;;;2.04;100.00;102058.77;109693;1253;58033;-78
2023/12/05 09:54:27;;;;;;;11.60;6.70;;;;;;;2.14;99.63;102060.66;109882;1253;58953;-78
2023/12/05 09:56:57;;;;;;;8.70;6.60;;;;;;;2.23;98.47;102056.84;109526;1253;72420;-78
2023/12/05 09:59:24;;;;;;;12.40;6.90;;;;;;;2.34;97.32;102054.73;109632;1252;64005;-78
2023/12/05 10:01:52;;;;;;;11.60;8.60;;;;;;;2.46;97.62;102054.71;109618;1254;72602;-80
2023/12/05 10:04:19;;;;;;;14.20;8.70;;;;;;;2.55;97.93;102057.27;109556;1253;59442;-77
2023/12/05 10:06:46;;;;;;;14.50;8.80;;;;;;;2.63;97.09;102054.48;109456;1252;59166;-78
2023/12/05 10:09:13;;;;;;;13.90;9.40;;;;;;;2.73;94.36;102055.31;109486;1254;72777;-78
2023/12/05 10:11:40;;;;;;;12.40;8.00;;;;;;;2.80;90.97;102058.38;109502;1253;64033;-77
2023/12/05 10:14:07;;;;;;;11.60;8.20;;;;;;;2.84;88.83;102061.30;109451;1254;72725;-78
2023/12/05 10:16:34;;;;;;;14.10;9.90;;;;;;;2.87;87.80;102064.92;109611;1252;58147;-78
2023/12/05 10:19:02;;;;;;;13.60;9.30;;;;;;;2.88;88.03;102067.33;109524;1257;60303;-79
2023/12/05 10:21:29;;;;;;;11.40;8.00;;;;;;;2.87;87.12;102070.77;109608;1252;73690;-78
2023/12/05 10:23:55;;;;;;;10.80;8.00;;;;;;;2.83;87.07;102069.08;109611;1252;63937;-78
2023/12/05 10:26:22;;;;;;;10.80;7.80;;;;;;;2.81;87.38;102064.43;109560;1252;72479;-79
2023/12/05 10:28:53;;;;;;;11.80;8.00;;;;;;;2.81;88.35;102062.67;109570;1253;59705;-78
2023/12/05 10:31:20;;;;;;;15.00;10.10;;;;;;;2.83;88.64;102064.23;109656;1253;58283;-77
2023/12/05 10:33:51;;;;;;;24.20;13.20;;;;;;;2.83;88.52;102063.38;109639;1252;73033;-78
2023/12/05 10:36:18;;;;;;;15.50;10.70;;;;;;;2.83;88.26;102056.63;109660;1253;62901;-77
2023/12/05 10:38:46;;;;;;;17.80;9.00;;;;;;;2.81;87.24;102054.06;109607;1253;72023;-78
2023/12/05 10:41:21;;;;;;;17.90;10.90;;;;;;;2.75;88.08;102056.16;109579;1254;59252;-77
2023/12/05 10:43:49;;;;;;;14.60;10.30;;;;;;;2.71;89.59;102050.83;109507;1254;60172;-78
2023/12/05 10:46:17;;;;;;;16.50;10.90;;;;;;;2.64;90.45;102050.85;109620;1253;73626;-78
2023/12/05 10:48:47;;;;;;;13.20;9.20;;;;;;;2.56;91.65;102049.67;109600;1253;63981;-78
2023/12/05 10:51:14;;;;;;;15.20;10.90;;;;;;;2.49;93.42;102046.08;109604;1252;72435;-78
2023/12/05 10:53:41;;;;;;;15.40;10.10;;;;;;;2.42;97.27;102039.88;109480;1252;58233;-79
2023/12/05 10:56:14;;;;;;;13.70;9.00;;;;;;;2.37;99.12;102043.69;109515;1253;59425;-79
2023/12/05 10:58:42;;;;;;;18.40;9.50;;;;;;;2.35;99.57;102049.39;109630;1254;72055;-78
2023/12/05 11:01:12;;;;;;;14.80;9.50;;;;;;;2.35;99.82;102051.98;109623;1252;65029;-78
2023/12/05 11:03:40;;;;;;;21.50;10.70;;;;;;;2.31;100.00;102049.23;109572;1254;72935;-77
2023/12/05 11:06:07;;;;;;;16.20;11.20;;;;;;;2.32;100.00;102042.86;109453;1254;59352;-78
2023/12/05 11:08:35;;;;;;;20.50;13.30;;;;;;;2.33;100.00;102035.60;109542;1256;61501;-77